createdAt,value
2019-03-09T00:03:52.768Z,29.23
2019-03-09T00:08:57.678Z,52.73
2019-03-09T00:14:02.491Z,26.27
2019-03-09T00:19:08.226Z,27.83
2019-03-09T00:24:23.273Z,25.03
2019-03-09T00:29:32.667Z,26.70
2019-03-09T00:34:38.258Z,23.17
2019-03-09T00:39:44.338Z,19.40
2019-03-09T00:44:49.164Z,20.20
2019-03-09T00:49:53.987Z,20.60
2019-03-09T00:54:58.828Z,26.30
2019-03-09T01:00:04.041Z,24.23
2019-03-09T01:05:09.680Z,22.43
2019-03-09T01:10:15.914Z,22.63
2019-03-09T01:15:20.725Z,28.40
2019-03-09T01:20:25.485Z,29.57
2019-03-09T01:25:30.324Z,26.27
2019-03-09T01:30:35.150Z,16.23
2019-03-09T01:35:40.063Z,15.10
2019-03-09T01:40:45.147Z,22.03
2019-03-09T01:45:49.972Z,16.10
2019-03-09T01:50:54.811Z,56.57
2019-03-09T01:55:59.646Z,73.40
2019-03-09T02:01:04.483Z,28.23
2019-03-09T02:06:09.610Z,16.00
2019-03-09T02:11:14.855Z,16.47
2019-03-09T02:16:19.990Z,15.20
2019-03-09T02:21:25.143Z,15.17
2019-03-09T02:26:30.402Z,22.90
2019-03-09T02:31:35.620Z,23.97
2019-03-09T02:36:40.697Z,28.33
2019-03-09T02:41:46.156Z,20.23
2019-03-09T02:46:51.193Z,26.30
2019-03-09T02:51:56.407Z,21.83
2019-03-09T02:57:01.458Z,21.13
2019-03-09T03:02:10.973Z,21.90
2019-03-09T03:07:15.806Z,21.20
2019-03-09T03:12:20.631Z,24.27
2019-03-09T03:17:25.454Z,27.90
2019-03-09T03:22:30.290Z,26.93
2019-03-09T03:27:35.116Z,28.63
2019-03-09T03:32:39.947Z,26.57
2019-03-09T03:37:44.716Z,22.90
2019-03-09T03:42:49.661Z,25.53
2019-03-09T03:47:54.495Z,22.23
2019-03-09T03:52:59.317Z,28.37
2019-03-09T03:58:04.258Z,20.33
2019-03-09T04:03:09.189Z,22.83
2019-03-09T04:08:14.311Z,17.50
2019-03-09T04:13:19.076Z,29.13
2019-03-09T04:18:23.918Z,34.60
2019-03-09T04:23:28.743Z,20.13
2019-03-09T04:28:33.568Z,35.17
2019-03-09T04:33:38.402Z,22.37
2019-03-09T04:38:43.225Z,23.87
2019-03-09T04:43:48.239Z,38.60
2019-03-09T04:48:53.009Z,57.47
2019-03-09T04:53:57.693Z,20.53
2019-03-09T04:59:02.450Z,26.37
2019-03-09T05:04:22.310Z,21.27
2019-03-09T05:09:48.141Z,430.67
2019-03-09T05:14:52.974Z,19.10
2019-03-09T05:19:57.726Z,19.87
2019-03-09T05:25:02.543Z,30.73
2019-03-09T05:30:13.176Z,29.13
2019-03-09T05:35:17.959Z,29.03
2019-03-09T05:40:22.784Z,28.10
2019-03-09T05:45:27.667Z,26.07
2019-03-09T05:50:32.507Z,23.47
2019-03-09T05:55:37.319Z,18.77
2019-03-09T06:00:42.807Z,20.00
2019-03-09T06:05:49.043Z,19.70
2019-03-09T06:10:53.814Z,27.73
2019-03-09T06:15:58.569Z,20.07
2019-03-09T06:21:03.396Z,17.63
2019-03-09T06:26:08.222Z,18.77
2019-03-09T06:31:13.349Z,18.87
2019-03-09T06:36:26.862Z,26.73
2019-03-09T06:41:46.483Z,22.03
2019-03-09T06:46:51.340Z,25.07
2019-03-09T06:51:56.179Z,22.20
2019-03-09T06:57:00.928Z,22.93
2019-03-09T07:02:05.907Z,23.93
2019-03-09T07:07:10.750Z,26.47
2019-03-09T07:12:15.525Z,19.83
2019-03-09T07:17:20.348Z,18.97
2019-03-09T07:22:25.300Z,24.60
2019-03-09T07:27:30.130Z,20.13
2019-03-09T07:32:34.890Z,18.17
2019-03-09T07:37:39.691Z,99.87
2019-03-09T07:42:44.530Z,37.10
2019-03-09T07:47:49.525Z,25.87
2019-03-09T07:52:54.354Z,30.87
2019-03-09T07:58:03.686Z,20.77
2019-03-09T08:03:08.626Z,17.87
2019-03-09T08:08:13.497Z,25.20
2019-03-09T08:13:18.326Z,37.40
2019-03-09T08:18:23.171Z,19.97
2019-03-09T08:23:28.097Z,22.93
2019-03-09T08:28:33.003Z,22.03
2019-03-09T08:33:37.836Z,21.07
2019-03-09T08:38:42.687Z,18.00
2019-03-09T08:43:47.539Z,19.27
2019-03-09T08:48:52.748Z,21.53
2019-03-09T08:53:57.599Z,14.83
2019-03-09T08:59:02.360Z,19.53
2019-03-09T09:04:07.210Z,17.97
2019-03-09T09:09:12.070Z,21.93
2019-03-09T09:14:16.979Z,19.63
2019-03-09T09:19:21.751Z,22.03
2019-03-09T09:24:27.062Z,20.37
2019-03-09T09:29:32.031Z,22.20
2019-03-09T09:34:36.889Z,18.77
2019-03-09T09:39:41.748Z,20.80
2019-03-09T10:31:08.583Z,16.50
2019-03-09T10:36:13.518Z,16.20
2019-03-09T10:41:18.356Z,11.97
2019-03-09T10:46:23.192Z,16.17
2019-03-09T10:51:28.034Z,18.00
2019-03-09T10:56:33.219Z,16.17
2019-03-09T11:01:38.033Z,14.70
2019-03-09T11:06:42.977Z,10.70
2019-03-09T11:11:48.322Z,13.10
2019-03-09T11:16:53.188Z,10.77
2019-03-09T11:21:58.070Z,17.67
2019-03-09T11:27:02.939Z,18.37
2019-03-09T11:32:07.802Z,8.67
2019-03-09T11:37:14.767Z,8.90
2019-03-09T11:42:20.816Z,12.37
2019-03-09T11:47:26.644Z,8.77
2019-03-09T11:52:31.486Z,11.17
2019-03-09T11:57:36.315Z,17.00
2019-03-09T12:02:41.142Z,11.87
2019-03-09T12:07:45.985Z,12.17
2019-03-09T12:12:50.818Z,28.77
2019-03-09T12:17:55.645Z,11.00
2019-03-09T12:23:09.052Z,14.80
2019-03-09T12:28:13.884Z,82.77
2019-03-09T12:33:18.778Z,24.87
2019-03-09T12:38:24.690Z,18.50
2019-03-09T12:43:29.536Z,32.77
2019-03-09T12:48:34.377Z,31.23
2019-03-09T12:53:39.670Z,34.87
2019-03-09T12:58:46.152Z,19.63
2019-03-09T13:03:51.210Z,26.93
2019-03-09T13:08:56.154Z,62.30
2019-03-09T13:14:01.061Z,76.93
2019-03-09T13:19:05.929Z,98.47
2019-03-09T13:24:10.777Z,45.47
2019-03-09T13:29:15.632Z,34.30
2019-03-09T13:34:20.496Z,17.03
2019-03-09T13:39:25.450Z,19.17
2019-03-09T13:44:30.190Z,10.70
2019-03-09T13:49:35.114Z,18.60
2019-03-09T13:54:40.345Z,48.33
2019-03-09T13:59:45.743Z,19.50
2019-03-09T14:04:50.586Z,12.33
2019-03-09T14:09:55.376Z,8.43
2019-03-09T14:15:00.254Z,19.70
2019-03-09T14:20:06.897Z,22.20
2019-03-09T14:25:17.457Z,22.13
2019-03-09T14:30:22.394Z,12.93
2019-03-09T14:35:27.244Z,42.37
2019-03-09T14:40:32.175Z,54.00
2019-03-09T14:45:36.962Z,18.27
2019-03-09T14:50:41.830Z,54.90
2019-03-09T14:55:47.129Z,50.60
2019-03-09T15:00:52.038Z,26.27
2019-03-09T15:05:56.821Z,75.20
2019-03-09T15:11:01.746Z,66.97
2019-03-09T15:16:06.608Z,28.10
2019-03-09T15:21:11.483Z,116.33
2019-03-09T15:26:16.653Z,29.03
2019-03-09T15:31:22.561Z,10.57
2019-03-09T15:36:27.416Z,7.07
2019-03-09T15:41:32.375Z,10.57
2019-03-09T15:46:37.195Z,9.90
2019-03-09T15:51:42.045Z,8.37
2019-03-09T15:56:47.304Z,13.77
2019-03-09T16:01:52.168Z,76.07
2019-03-09T16:06:59.292Z,253.50
2019-03-09T16:12:04.197Z,24.63
2019-03-09T16:17:09.091Z,41.27
2019-03-09T16:22:14.086Z,34.00
2019-03-09T16:27:18.958Z,201.03
2019-03-09T16:32:23.837Z,113.70
2019-03-09T16:37:29.692Z,240.97
2019-03-09T16:42:34.652Z,488.93
2019-03-09T16:47:39.505Z,242.40
2019-03-09T16:52:44.383Z,118.03
2019-03-09T16:57:49.556Z,27.43
2019-03-09T17:02:54.432Z,113.67
2019-03-09T17:07:59.282Z,34.53
2019-03-09T17:13:04.126Z,96.40
2019-03-09T17:18:08.990Z,70.00
2019-03-09T17:23:13.851Z,459.77
2019-03-09T17:28:18.729Z,310.53
2019-03-09T17:33:23.611Z,258.77
2019-03-09T17:38:28.391Z,386.77
2019-03-09T17:43:33.563Z,324.97
2019-03-09T17:48:38.509Z,634.10
2019-03-09T17:53:43.557Z,362.20
2019-03-09T17:58:49.109Z,156.03
2019-03-09T18:03:53.932Z,458.80
2019-03-09T18:08:58.800Z,337.93
2019-03-09T18:14:07.249Z,51.37
2019-03-09T18:19:10.163Z,14.37
2019-03-09T18:24:14.941Z,15.60
2019-03-09T18:29:19.724Z,13.07
2019-03-09T18:34:30.628Z,29.83
2019-03-09T18:39:35.792Z,24.20
2019-03-09T18:44:40.977Z,20.80
2019-03-09T18:49:45.943Z,17.57
2019-03-09T18:54:51.009Z,18.97
2019-03-09T18:59:56.040Z,184.07
2019-03-09T19:05:00.902Z,69.73
2019-03-09T19:10:14.028Z,117.57
2019-03-09T19:15:19.203Z,158.57
2019-03-09T19:20:24.078Z,55.67
2019-03-09T19:25:29.032Z,45.00
2019-03-09T19:30:34.916Z,92.43
2019-03-09T19:35:39.879Z,434.30
2019-03-09T19:40:44.726Z,146.97
2019-03-09T19:45:49.573Z,664.07
2019-03-09T19:50:57.274Z,381.83
2019-03-09T19:56:02.226Z,174.33
2019-03-09T20:01:07.503Z,219.70
2019-03-09T20:06:12.314Z,43.67
2019-03-09T20:11:17.185Z,19.00
2019-03-09T20:16:22.023Z,51.00
2019-03-09T20:21:26.951Z,27.67
2019-03-09T20:26:31.766Z,140.73
2019-03-09T20:31:36.596Z,35.93
2019-03-09T20:36:41.436Z,397.53
2019-03-09T20:41:47.722Z,260.07
2019-03-09T20:46:52.574Z,232.67
2019-03-09T20:51:57.509Z,38.23
2019-03-09T20:57:02.817Z,132.90
2019-03-09T21:02:07.716Z,75.47
2019-03-09T21:07:12.553Z,80.60
2019-03-09T21:12:17.402Z,37.73
2019-03-09T21:17:22.267Z,81.70
2019-03-09T21:22:27.114Z,97.63
2019-03-09T21:27:33.303Z,77.43
2019-03-09T21:32:39.240Z,60.83
2019-03-09T21:37:44.015Z,48.23
2019-03-09T21:42:48.931Z,41.03
2019-03-09T21:47:53.887Z,35.53
2019-03-09T21:52:58.833Z,36.60
2019-03-09T21:58:03.772Z,56.33
2019-03-09T22:03:10.585Z,28.17
2019-03-09T22:08:15.544Z,28.17
2019-03-09T22:13:20.384Z,17.77
2019-03-09T22:18:25.533Z,17.50
2019-03-09T22:23:43.788Z,20.97
2019-03-09T22:28:40.700Z,21.67
2019-03-09T22:33:45.533Z,21.87
2019-03-09T22:38:50.376Z,25.43
2019-03-09T22:43:55.268Z,18.30
2019-03-09T22:49:00.111Z,15.27
2019-03-09T22:54:05.099Z,12.53
2019-03-09T22:59:09.959Z,13.90
2019-03-09T23:04:16.302Z,11.30
2019-03-09T23:09:21.359Z,5.97
2019-03-09T23:14:26.299Z,6.70
2019-03-09T23:19:31.126Z,7.10
2019-03-09T23:24:35.960Z,8.37
2019-03-09T23:29:40.894Z,6.47
2019-03-09T23:34:45.747Z,8.03
2019-03-09T23:39:50.579Z,5.13
2019-03-09T23:44:55.407Z,4.67
2019-03-09T23:50:00.326Z,5.03
2019-03-09T23:55:06.374Z,4.40
